sensor_id;sensor_type;location;lat;lon;timestamp;P1;durP1;ratioP1;P2;durP2;ratioP2
60078;SDS011;45951;45.824;8.824;2024-01-30T00:00:52;13.52;;;8.82;;
60078;SDS011;45951;45.824;8.824;2024-01-30T00:02:32;11.97;;;7.13;;
60078;SDS011;45951;45.824;8.824;2024-01-30T00:04:12;14.23;;;8.40;;
60078;SDS011;45951;45.824;8.824;2024-01-30T00:05:52;13.27;;;8.07;;
60078;SDS011;45951;45.824;8.824;2024-01-30T00:07:32;13.60;;;7.97;;
60078;SDS011;45951;45.824;8.824;2024-01-30T00:09:13;13.25;;;8.25;;
60078;SDS011;45951;45.824;8.824;2024-01-30T00:10:53;12.77;;;8.25;;
60078;SDS011;45951;45.824;8.824;2024-01-30T00:12:33;13.38;;;8.07;;
60078;SDS011;45951;45.824;8.824;2024-01-30T00:14:14;11.27;;;8.13;;
60078;SDS011;45951;45.824;8.824;2024-01-30T00:15:54;12.02;;;7.43;;
60078;SDS011;45951;45.824;8.824;2024-01-30T00:17:34;13.88;;;8.50;;
60078;SDS011;45951;45.824;8.824;2024-01-30T00:19:14;14.82;;;8.82;;
60078;SDS011;45951;45.824;8.824;2024-01-30T00:20:55;13.20;;;8.55;;
60078;SDS011;45951;45.824;8.824;2024-01-30T00:22:35;12.07;;;7.38;;
60078;SDS011;45951;45.824;8.824;2024-01-30T00:24:15;13.60;;;7.90;;
60078;SDS011;45951;45.824;8.824;2024-01-30T00:25:55;13.38;;;9.02;;
60078;SDS011;45951;45.824;8.824;2024-01-30T00:27:36;14.63;;;8.02;;
60078;SDS011;45951;45.824;8.824;2024-01-30T00:29:16;12.73;;;8.10;;
60078;SDS011;45951;45.824;8.824;2024-01-30T00:30:59;13.48;;;8.73;;
60078;SDS011;45951;45.824;8.824;2024-01-30T00:32:39;13.03;;;8.20;;
60078;SDS011;45951;45.824;8.824;2024-01-30T00:34:19;12.88;;;8.18;;
60078;SDS011;45951;45.824;8.824;2024-01-30T00:36:00;15.10;;;8.68;;
60078;SDS011;45951;45.824;8.824;2024-01-30T00:37:40;14.68;;;8.80;;
60078;SDS011;45951;45.824;8.824;2024-01-30T00:39:20;13.50;;;8.27;;
60078;SDS011;45951;45.824;8.824;2024-01-30T00:41:00;15.15;;;9.52;;
60078;SDS011;45951;45.824;8.824;2024-01-30T00:42:42;14.02;;;8.82;;
60078;SDS011;45951;45.824;8.824;2024-01-30T00:44:22;14.15;;;9.45;;
60078;SDS011;45951;45.824;8.824;2024-01-30T00:46:03;14.85;;;8.68;;
60078;SDS011;45951;45.824;8.824;2024-01-30T00:47:43;14.10;;;9.10;;
60078;SDS011;45951;45.824;8.824;2024-01-30T00:49:23;16.50;;;8.90;;
60078;SDS011;45951;45.824;8.824;2024-01-30T00:51:03;12.53;;;8.73;;
60078;SDS011;45951;45.824;8.824;2024-01-30T00:52:44;13.85;;;8.20;;
60078;SDS011;45951;45.824;8.824;2024-01-30T00:54:25;12.50;;;8.73;;
60078;SDS011;45951;45.824;8.824;2024-01-30T00:56:05;13.63;;;8.75;;
60078;SDS011;45951;45.824;8.824;2024-01-30T00:57:45;12.98;;;8.27;;
60078;SDS011;45951;45.824;8.824;2024-01-30T00:59:25;13.05;;;8.55;;
60078;SDS011;45951;45.824;8.824;2024-01-30T01:01:06;13.63;;;8.00;;
60078;SDS011;45951;45.824;8.824;2024-01-30T01:02:47;12.05;;;8.05;;
60078;SDS011;45951;45.824;8.824;2024-01-30T01:04:27;13.07;;;7.90;;
60078;SDS011;45951;45.824;8.824;2024-01-30T01:06:08;11.82;;;8.00;;
60078;SDS011;45951;45.824;8.824;2024-01-30T01:07:48;12.82;;;7.85;;
60078;SDS011;45951;45.824;8.824;2024-01-30T01:09:28;12.00;;;7.80;;
60078;SDS011;45951;45.824;8.824;2024-01-30T01:11:08;13.40;;;7.83;;
60078;SDS011;45951;45.824;8.824;2024-01-30T01:12:49;10.77;;;7.35;;
60078;SDS011;45951;45.824;8.824;2024-01-30T01:14:29;12.50;;;7.13;;
60078;SDS011;45951;45.824;8.824;2024-01-30T01:16:10;11.30;;;7.72;;
60078;SDS011;45951;45.824;8.824;2024-01-30T01:17:50;11.70;;;8.05;;
60078;SDS011;45951;45.824;8.824;2024-01-30T01:19:30;13.90;;;7.90;;
60078;SDS011;45951;45.824;8.824;2024-01-30T01:21:10;13.63;;;8.20;;
60078;SDS011;45951;45.824;8.824;2024-01-30T01:22:51;12.53;;;8.23;;
60078;SDS011;45951;45.824;8.824;2024-01-30T01:24:32;13.15;;;7.20;;
60078;SDS011;45951;45.824;8.824;2024-01-30T01:26:13;11.75;;;7.47;;
60078;SDS011;45951;45.824;8.824;2024-01-30T01:27:53;12.82;;;7.85;;
60078;SDS011;45951;45.824;8.824;2024-01-30T01:29:33;14.23;;;8.35;;
60078;SDS011;45951;45.824;8.824;2024-01-30T01:31:13;12.73;;;8.85;;
60078;SDS011;45951;45.824;8.824;2024-01-30T01:32:54;13.98;;;9.40;;
60078;SDS011;45951;45.824;8.824;2024-01-30T01:34:40;12.05;;;7.72;;
60078;SDS011;45951;45.824;8.824;2024-01-30T01:36:20;11.57;;;8.02;;
60078;SDS011;45951;45.824;8.824;2024-01-30T01:38:00;11.80;;;7.38;;
60078;SDS011;45951;45.824;8.824;2024-01-30T01:39:41;11.85;;;7.20;;
60078;SDS011;45951;45.824;8.824;2024-01-30T01:41:21;12.93;;;8.50;;
60078;SDS011;45951;45.824;8.824;2024-01-30T01:43:02;13.13;;;8.13;;
60078;SDS011;45951;45.824;8.824;2024-01-30T01:44:43;14.55;;;7.93;;
60078;SDS011;45951;45.824;8.824;2024-01-30T01:46:23;13.82;;;7.95;;
60078;SDS011;45951;45.824;8.824;2024-01-30T01:48:03;14.38;;;8.35;;
60078;SDS011;45951;45.824;8.824;2024-01-30T01:49:44;14.07;;;8.20;;
60078;SDS011;45951;45.824;8.824;2024-01-30T01:51:24;11.73;;;7.75;;
60078;SDS011;45951;45.824;8.824;2024-01-30T01:53:06;11.52;;;7.47;;
60078;SDS011;45951;45.824;8.824;2024-01-30T01:54:47;10.93;;;6.82;;
60078;SDS011;45951;45.824;8.824;2024-01-30T01:56:28;11.93;;;7.33;;
60078;SDS011;45951;45.824;8.824;2024-01-30T01:58:09;13.45;;;7.53;;
60078;SDS011;45951;45.824;8.824;2024-01-30T01:59:49;11.02;;;7.25;;
60078;SDS011;45951;45.824;8.824;2024-01-30T02:01:29;11.70;;;7.57;;
60078;SDS011;45951;45.824;8.824;2024-01-30T02:03:11;10.98;;;7.53;;
60078;SDS011;45951;45.824;8.824;2024-01-30T02:04:52;11.75;;;7.55;;
60078;SDS011;45951;45.824;8.824;2024-01-30T02:06:32;11.57;;;7.40;;
60078;SDS011;45951;45.824;8.824;2024-01-30T02:08:13;12.98;;;7.50;;
60078;SDS011;45951;45.824;8.824;2024-01-30T02:09:53;12.33;;;7.90;;
60078;SDS011;45951;45.824;8.824;2024-01-30T02:11:34;11.38;;;7.20;;
60078;SDS011;45951;45.824;8.824;2024-01-30T02:13:14;11.63;;;7.05;;
60078;SDS011;45951;45.824;8.824;2024-01-30T02:14:54;12.18;;;7.35;;
60078;SDS011;45951;45.824;8.824;2024-01-30T02:16:35;12.13;;;7.05;;
60078;SDS011;45951;45.824;8.824;2024-01-30T02:18:16;11.98;;;7.07;;
60078;SDS011;45951;45.824;8.824;2024-01-30T02:19:56;11.67;;;7.57;;
60078;SDS011;45951;45.824;8.824;2024-01-30T02:21:36;12.95;;;7.72;;
60078;SDS011;45951;45.824;8.824;2024-01-30T02:23:17;13.18;;;7.00;;
60078;SDS011;45951;45.824;8.824;2024-01-30T02:24:59;11.70;;;6.90;;
60078;SDS011;45951;45.824;8.824;2024-01-30T02:26:39;10.73;;;6.85;;
60078;SDS011;45951;45.824;8.824;2024-01-30T02:28:19;11.23;;;6.80;;
60078;SDS011;45951;45.824;8.824;2024-01-30T02:30:00;11.77;;;7.05;;
60078;SDS011;45951;45.824;8.824;2024-01-30T02:31:40;10.48;;;6.93;;
60078;SDS011;45951;45.824;8.824;2024-01-30T02:33:20;10.40;;;6.80;;
60078;SDS011;45951;45.824;8.824;2024-01-30T02:35:02;10.57;;;6.55;;
60078;SDS011;45951;45.824;8.824;2024-01-30T02:36:42;9.85;;;6.32;;
60078;SDS011;45951;45.824;8.824;2024-01-30T02:38:23;11.23;;;6.50;;
60078;SDS011;45951;45.824;8.824;2024-01-30T02:40:03;10.57;;;6.50;;
60078;SDS011;45951;45.824;8.824;2024-01-30T02:41:43;9.65;;;6.07;;
60078;SDS011;45951;45.824;8.824;2024-01-30T02:43:24;10.93;;;6.30;;
60078;SDS011;45951;45.824;8.824;2024-01-30T02:45:04;10.02;;;6.13;;
60078;SDS011;45951;45.824;8.824;2024-01-30T02:46:44;10.15;;;5.75;;
60078;SDS011;45951;45.824;8.824;2024-01-30T02:48:24;9.65;;;6.05;;
60078;SDS011;45951;45.824;8.824;2024-01-30T02:50:05;10.68;;;6.03;;
60078;SDS011;45951;45.824;8.824;2024-01-30T02:51:45;9.68;;;6.30;;
60078;SDS011;45951;45.824;8.824;2024-01-30T02:53:25;9.73;;;5.68;;
60078;SDS011;45951;45.824;8.824;2024-01-30T02:55:06;11.18;;;6.03;;
60078;SDS011;45951;45.824;8.824;2024-01-30T02:56:46;9.25;;;5.35;;
60078;SDS011;45951;45.824;8.824;2024-01-30T02:58:28;9.40;;;5.60;;
60078;SDS011;45951;45.824;8.824;2024-01-30T03:00:08;8.45;;;4.88;;
60078;SDS011;45951;45.824;8.824;2024-01-30T03:01:49;11.43;;;5.47;;
60078;SDS011;45951;45.824;8.824;2024-01-30T03:03:29;8.65;;;5.20;;
60078;SDS011;45951;45.824;8.824;2024-01-30T03:05:09;10.13;;;4.90;;
60078;SDS011;45951;45.824;8.824;2024-01-30T03:06:50;9.77;;;5.10;;
60078;SDS011;45951;45.824;8.824;2024-01-30T03:08:30;8.50;;;4.83;;
60078;SDS011;45951;45.824;8.824;2024-01-30T03:10:10;10.35;;;4.70;;
60078;SDS011;45951;45.824;8.824;2024-01-30T03:11:50;8.05;;;5.20;;
60078;SDS011;45951;45.824;8.824;2024-01-30T03:13:31;9.83;;;4.73;;
60078;SDS011;45951;45.824;8.824;2024-01-30T03:15:11;9.65;;;5.32;;
60078;SDS011;45951;45.824;8.824;2024-01-30T03:16:51;9.95;;;5.50;;
60078;SDS011;45951;45.824;8.824;2024-01-30T03:18:31;11.17;;;5.63;;
60078;SDS011;45951;45.824;8.824;2024-01-30T03:20:11;7.80;;;4.73;;
60078;SDS011;45951;45.824;8.824;2024-01-30T03:21:52;7.68;;;4.70;;
60078;SDS011;45951;45.824;8.824;2024-01-30T03:23:32;10.35;;;5.45;;
60078;SDS011;45951;45.824;8.824;2024-01-30T03:25:12;9.17;;;4.93;;
60078;SDS011;45951;45.824;8.824;2024-01-30T03:26:53;7.93;;;4.97;;
60078;SDS011;45951;45.824;8.824;2024-01-30T03:28:33;10.40;;;5.00;;
60078;SDS011;45951;45.824;8.824;2024-01-30T03:30:13;10.40;;;5.05;;
60078;SDS011;45951;45.824;8.824;2024-01-30T03:31:53;8.88;;;5.47;;
60078;SDS011;45951;45.824;8.824;2024-01-30T03:33:34;8.75;;;5.05;;
60078;SDS011;45951;45.824;8.824;2024-01-30T03:35:14;8.60;;;4.77;;
60078;SDS011;45951;45.824;8.824;2024-01-30T03:36:55;8.68;;;4.72;;
60078;SDS011;45951;45.824;8.824;2024-01-30T03:38:35;9.52;;;5.40;;
60078;SDS011;45951;45.824;8.824;2024-01-30T03:40:15;9.33;;;5.47;;
60078;SDS011;45951;45.824;8.824;2024-01-30T03:41:55;8.80;;;5.35;;
60078;SDS011;45951;45.824;8.824;2024-01-30T03:43:36;8.75;;;5.35;;
60078;SDS011;45951;45.824;8.824;2024-01-30T03:45:16;11.00;;;6.07;;
60078;SDS011;45951;45.824;8.824;2024-01-30T03:46:59;9.05;;;5.50;;
60078;SDS011;45951;45.824;8.824;2024-01-30T03:48:39;10.27;;;5.80;;
60078;SDS011;45951;45.824;8.824;2024-01-30T03:50:20;7.88;;;5.43;;
60078;SDS011;45951;45.824;8.824;2024-01-30T03:52:00;8.43;;;5.10;;
60078;SDS011;45951;45.824;8.824;2024-01-30T03:53:40;8.87;;;5.30;;
60078;SDS011;45951;45.824;8.824;2024-01-30T03:55:21;9.18;;;5.35;;
60078;SDS011;45951;45.824;8.824;2024-01-30T03:57:01;8.98;;;5.50;;
60078;SDS011;45951;45.824;8.824;2024-01-30T03:58:42;11.02;;;6.03;;
60078;SDS011;45951;45.824;8.824;2024-01-30T04:00:22;9.50;;;5.95;;
60078;SDS011;45951;45.824;8.824;2024-01-30T04:02:02;8.20;;;5.20;;
60078;SDS011;45951;45.824;8.824;2024-01-30T04:03:43;9.65;;;5.85;;
60078;SDS011;45951;45.824;8.824;2024-01-30T04:05:24;9.32;;;5.57;;
60078;SDS011;45951;45.824;8.824;2024-01-30T04:07:04;8.70;;;5.23;;
60078;SDS011;45951;45.824;8.824;2024-01-30T04:08:44;10.77;;;5.27;;
60078;SDS011;45951;45.824;8.824;2024-01-30T04:10:24;10.00;;;5.70;;
60078;SDS011;45951;45.824;8.824;2024-01-30T04:12:07;8.73;;;4.93;;
60078;SDS011;45951;45.824;8.824;2024-01-30T04:13:47;9.43;;;5.55;;
60078;SDS011;45951;45.824;8.824;2024-01-30T04:15:28;9.95;;;5.55;;
60078;SDS011;45951;45.824;8.824;2024-01-30T04:17:09;8.80;;;5.00;;
60078;SDS011;45951;45.824;8.824;2024-01-30T04:18:49;8.10;;;4.83;;
60078;SDS011;45951;45.824;8.824;2024-01-30T04:20:30;8.77;;;5.30;;
60078;SDS011;45951;45.824;8.824;2024-01-30T04:22:10;9.95;;;5.45;;
60078;SDS011;45951;45.824;8.824;2024-01-30T04:23:50;9.23;;;5.23;;
60078;SDS011;45951;45.824;8.824;2024-01-30T04:25:31;8.25;;;4.80;;
60078;SDS011;45951;45.824;8.824;2024-01-30T04:27:11;8.65;;;4.97;;
60078;SDS011;45951;45.824;8.824;2024-01-30T04:28:51;8.13;;;4.97;;
60078;SDS011;45951;45.824;8.824;2024-01-30T04:30:32;8.48;;;4.65;;
60078;SDS011;45951;45.824;8.824;2024-01-30T04:32:12;8.67;;;4.90;;
60078;SDS011;45951;45.824;8.824;2024-01-30T04:33:52;9.15;;;4.65;;
60078;SDS011;45951;45.824;8.824;2024-01-30T04:35:32;8.23;;;4.27;;
60078;SDS011;45951;45.824;8.824;2024-01-30T04:37:13;6.95;;;4.25;;
60078;SDS011;45951;45.824;8.824;2024-01-30T04:38:53;8.43;;;4.80;;
60078;SDS011;45951;45.824;8.824;2024-01-30T04:40:33;10.53;;;4.70;;
60078;SDS011;45951;45.824;8.824;2024-01-30T04:42:13;7.70;;;4.57;;
60078;SDS011;45951;45.824;8.824;2024-01-30T04:43:53;8.53;;;5.00;;
60078;SDS011;45951;45.824;8.824;2024-01-30T04:45:34;10.65;;;5.00;;
60078;SDS011;45951;45.824;8.824;2024-01-30T04:47:14;8.90;;;5.00;;
60078;SDS011;45951;45.824;8.824;2024-01-30T04:48:54;8.15;;;5.05;;
60078;SDS011;45951;45.824;8.824;2024-01-30T04:50:34;8.40;;;4.72;;
60078;SDS011;45951;45.824;8.824;2024-01-30T04:52:14;10.48;;;4.97;;
60078;SDS011;45951;45.824;8.824;2024-01-30T04:53:55;9.10;;;5.13;;
60078;SDS011;45951;45.824;8.824;2024-01-30T04:55:35;8.40;;;4.53;;
60078;SDS011;45951;45.824;8.824;2024-01-30T04:57:16;9.15;;;4.97;;
60078;SDS011;45951;45.824;8.824;2024-01-30T04:58:56;10.33;;;4.87;;
60078;SDS011;45951;45.824;8.824;2024-01-30T05:00:36;8.52;;;4.68;;
60078;SDS011;45951;45.824;8.824;2024-01-30T05:02:16;8.97;;;4.73;;
60078;SDS011;45951;45.824;8.824;2024-01-30T05:03:57;7.32;;;4.65;;
60078;SDS011;45951;45.824;8.824;2024-01-30T05:05:37;6.97;;;4.40;;
60078;SDS011;45951;45.824;8.824;2024-01-30T05:07:17;9.02;;;4.38;;
60078;SDS011;45951;45.824;8.824;2024-01-30T05:08:58;7.88;;;4.40;;
60078;SDS011;45951;45.824;8.824;2024-01-30T05:10:38;6.73;;;4.10;;
60078;SDS011;45951;45.824;8.824;2024-01-30T05:12:18;6.73;;;4.07;;
60078;SDS011;45951;45.824;8.824;2024-01-30T05:13:59;7.03;;;4.32;;
60078;SDS011;45951;45.824;8.824;2024-01-30T05:15:39;7.35;;;3.70;;
60078;SDS011;45951;45.824;8.824;2024-01-30T05:17:19;8.52;;;5.05;;
60078;SDS011;45951;45.824;8.824;2024-01-30T05:18:59;8.57;;;4.30;;
60078;SDS011;45951;45.824;8.824;2024-01-30T05:20:39;6.82;;;4.20;;
60078;SDS011;45951;45.824;8.824;2024-01-30T05:22:20;7.50;;;4.18;;
60078;SDS011;45951;45.824;8.824;2024-01-30T05:24:00;7.00;;;3.80;;
60078;SDS011;45951;45.824;8.824;2024-01-30T05:25:40;8.65;;;4.68;;
60078;SDS011;45951;45.824;8.824;2024-01-30T05:27:20;8.93;;;4.23;;
60078;SDS011;45951;45.824;8.824;2024-01-30T05:29:00;8.27;;;4.38;;
60078;SDS011;45951;45.824;8.824;2024-01-30T05:30:41;7.43;;;4.25;;
60078;SDS011;45951;45.824;8.824;2024-01-30T05:32:21;8.93;;;4.53;;
60078;SDS011;45951;45.824;8.824;2024-01-30T05:34:01;8.73;;;4.65;;
60078;SDS011;45951;45.824;8.824;2024-01-30T05:35:41;9.63;;;4.57;;
60078;SDS011;45951;45.824;8.824;2024-01-30T05:37:22;7.53;;;3.97;;
60078;SDS011;45951;45.824;8.824;2024-01-30T05:39:02;7.15;;;4.13;;
60078;SDS011;45951;45.824;8.824;2024-01-30T05:40:42;8.85;;;4.95;;
60078;SDS011;45951;45.824;8.824;2024-01-30T05:42:22;7.63;;;4.38;;
60078;SDS011;45951;45.824;8.824;2024-01-30T05:44:03;9.50;;;6.43;;
60078;SDS011;45951;45.824;8.824;2024-01-30T05:45:43;7.22;;;4.50;;
60078;SDS011;45951;45.824;8.824;2024-01-30T05:47:23;9.93;;;7.07;;
60078;SDS011;45951;45.824;8.824;2024-01-30T05:49:03;10.05;;;6.38;;
60078;SDS011;45951;45.824;8.824;2024-01-30T05:50:44;8.27;;;4.60;;
60078;SDS011;45951;45.824;8.824;2024-01-30T05:52:25;9.73;;;4.88;;
60078;SDS011;45951;45.824;8.824;2024-01-30T05:54:05;8.30;;;4.50;;
60078;SDS011;45951;45.824;8.824;2024-01-30T05:55:45;9.63;;;6.53;;
60078;SDS011;45951;45.824;8.824;2024-01-30T05:57:26;9.10;;;5.70;;
60078;SDS011;45951;45.824;8.824;2024-01-30T05:59:06;8.27;;;4.50;;
60078;SDS011;45951;45.824;8.824;2024-01-30T06:00:46;8.60;;;4.97;;
60078;SDS011;45951;45.824;8.824;2024-01-30T06:02:26;10.65;;;4.95;;
60078;SDS011;45951;45.824;8.824;2024-01-30T06:04:06;13.15;;;5.30;;
60078;SDS011;45951;45.824;8.824;2024-01-30T06:05:47;9.90;;;5.27;;
60078;SDS011;45951;45.824;8.824;2024-01-30T06:07:27;10.33;;;5.30;;
60078;SDS011;45951;45.824;8.824;2024-01-30T06:09:07;7.77;;;4.63;;
60078;SDS011;45951;45.824;8.824;2024-01-30T06:10:50;10.02;;;5.45;;
60078;SDS011;45951;45.824;8.824;2024-01-30T06:12:30;10.73;;;5.93;;
60078;SDS011;45951;45.824;8.824;2024-01-30T06:14:10;10.57;;;5.60;;
60078;SDS011;45951;45.824;8.824;2024-01-30T06:15:51;12.40;;;5.53;;
60078;SDS011;45951;45.824;8.824;2024-01-30T06:17:31;10.02;;;5.80;;
60078;SDS011;45951;45.824;8.824;2024-01-30T06:19:11;10.32;;;5.70;;
60078;SDS011;45951;45.824;8.824;2024-01-30T06:20:51;11.07;;;5.55;;
60078;SDS011;45951;45.824;8.824;2024-01-30T06:22:32;9.95;;;5.63;;
60078;SDS011;45951;45.824;8.824;2024-01-30T06:24:12;9.60;;;5.75;;
60078;SDS011;45951;45.824;8.824;2024-01-30T06:25:52;10.93;;;6.20;;
60078;SDS011;45951;45.824;8.824;2024-01-30T06:27:32;10.67;;;5.57;;
60078;SDS011;45951;45.824;8.824;2024-01-30T06:29:12;11.07;;;5.68;;
60078;SDS011;45951;45.824;8.824;2024-01-30T06:30:54;9.13;;;5.68;;
60078;SDS011;45951;45.824;8.824;2024-01-30T06:32:35;12.65;;;6.10;;
60078;SDS011;45951;45.824;8.824;2024-01-30T06:34:15;12.27;;;6.13;;
60078;SDS011;45951;45.824;8.824;2024-01-30T06:35:55;11.18;;;5.90;;
60078;SDS011;45951;45.824;8.824;2024-01-30T06:37:36;9.17;;;4.87;;
60078;SDS011;45951;45.824;8.824;2024-01-30T06:39:16;9.75;;;5.43;;
60078;SDS011;45951;45.824;8.824;2024-01-30T06:40:56;10.33;;;5.53;;
60078;SDS011;45951;45.824;8.824;2024-01-30T06:42:37;9.50;;;5.37;;
60078;SDS011;45951;45.824;8.824;2024-01-30T06:44:17;8.57;;;5.20;;
60078;SDS011;45951;45.824;8.824;2024-01-30T06:45:57;9.23;;;5.53;;
60078;SDS011;45951;45.824;8.824;2024-01-30T06:47:37;9.07;;;5.47;;
60078;SDS011;45951;45.824;8.824;2024-01-30T06:49:17;9.27;;;5.60;;
60078;SDS011;45951;45.824;8.824;2024-01-30T06:50:58;10.27;;;5.40;;
60078;SDS011;45951;45.824;8.824;2024-01-30T06:52:38;8.30;;;5.35;;
60078;SDS011;45951;45.824;8.824;2024-01-30T06:54:18;10.73;;;5.45;;
60078;SDS011;45951;45.824;8.824;2024-01-30T06:55:59;11.40;;;6.40;;
60078;SDS011;45951;45.824;8.824;2024-01-30T06:57:39;10.38;;;6.10;;
60078;SDS011;45951;45.824;8.824;2024-01-30T06:59:19;12.57;;;6.10;;
60078;SDS011;45951;45.824;8.824;2024-01-30T07:00:59;12.27;;;6.07;;
60078;SDS011;45951;45.824;8.824;2024-01-30T07:02:40;10.70;;;6.30;;
60078;SDS011;45951;45.824;8.824;2024-01-30T07:04:20;10.27;;;6.27;;
60078;SDS011;45951;45.824;8.824;2024-01-30T07:06:00;12.57;;;7.23;;
60078;SDS011;45951;45.824;8.824;2024-01-30T07:07:40;11.27;;;6.80;;
60078;SDS011;45951;45.824;8.824;2024-01-30T07:09:20;13.38;;;7.00;;
60078;SDS011;45951;45.824;8.824;2024-01-30T07:11:03;12.45;;;6.53;;
60078;SDS011;45951;45.824;8.824;2024-01-30T07:12:43;9.57;;;6.32;;
60078;SDS011;45951;45.824;8.824;2024-01-30T07:14:24;10.88;;;6.88;;
60078;SDS011;45951;45.824;8.824;2024-01-30T07:16:04;10.30;;;6.65;;
60078;SDS011;45951;45.824;8.824;2024-01-30T07:17:44;15.40;;;7.13;;
60078;SDS011;45951;45.824;8.824;2024-01-30T07:19:24;13.88;;;7.05;;
60078;SDS011;45951;45.824;8.824;2024-01-30T07:21:04;13.20;;;7.70;;
60078;SDS011;45951;45.824;8.824;2024-01-30T07:22:45;14.90;;;7.30;;
60078;SDS011;45951;45.824;8.824;2024-01-30T07:24:25;11.93;;;6.72;;
60078;SDS011;45951;45.824;8.824;2024-01-30T07:26:05;12.90;;;7.22;;
60078;SDS011;45951;45.824;8.824;2024-01-30T07:27:46;17.05;;;7.85;;
60078;SDS011;45951;45.824;8.824;2024-01-30T07:29:27;16.15;;;8.55;;
60078;SDS011;45951;45.824;8.824;2024-01-30T07:31:07;15.73;;;8.03;;
60078;SDS011;45951;45.824;8.824;2024-01-30T07:32:47;12.07;;;6.70;;
60078;SDS011;45951;45.824;8.824;2024-01-30T07:34:27;14.20;;;7.17;;
60078;SDS011;45951;45.824;8.824;2024-01-30T07:36:07;12.27;;;6.40;;
60078;SDS011;45951;45.824;8.824;2024-01-30T07:37:48;11.93;;;6.75;;
60078;SDS011;45951;45.824;8.824;2024-01-30T07:39:28;12.48;;;6.68;;
60078;SDS011;45951;45.824;8.824;2024-01-30T07:41:08;11.60;;;6.50;;
60078;SDS011;45951;45.824;8.824;2024-01-30T07:42:49;13.27;;;7.57;;
60078;SDS011;45951;45.824;8.824;2024-01-30T07:44:29;13.80;;;7.35;;
60078;SDS011;45951;45.824;8.824;2024-01-30T07:46:09;13.65;;;7.72;;
60078;SDS011;45951;45.824;8.824;2024-01-30T07:47:50;14.38;;;10.20;;
60078;SDS011;45951;45.824;8.824;2024-01-30T07:49:30;12.90;;;9.48;;
60078;SDS011;45951;45.824;8.824;2024-01-30T07:51:10;18.90;;;9.87;;
60078;SDS011;45951;45.824;8.824;2024-01-30T07:52:51;12.82;;;9.13;;
60078;SDS011;45951;45.824;8.824;2024-01-30T07:54:34;14.32;;;9.65;;
60078;SDS011;45951;45.824;8.824;2024-01-30T07:56:15;14.82;;;8.93;;
60078;SDS011;45951;45.824;8.824;2024-01-30T07:57:56;16.92;;;9.05;;
60078;SDS011;45951;45.824;8.824;2024-01-30T07:59:36;17.45;;;9.27;;
60078;SDS011;45951;45.824;8.824;2024-01-30T08:01:16;15.43;;;9.15;;
60078;SDS011;45951;45.824;8.824;2024-01-30T08:02:56;13.50;;;9.27;;
60078;SDS011;45951;45.824;8.824;2024-01-30T08:04:37;19.73;;;9.43;;
60078;SDS011;45951;45.824;8.824;2024-01-30T08:06:17;13.48;;;9.40;;
60078;SDS011;45951;45.824;8.824;2024-01-30T08:07:57;14.45;;;9.38;;
60078;SDS011;45951;45.824;8.824;2024-01-30T08:09:37;17.17;;;10.40;;
60078;SDS011;45951;45.824;8.824;2024-01-30T08:11:17;14.90;;;8.82;;
60078;SDS011;45951;45.824;8.824;2024-01-30T08:12:58;14.68;;;8.85;;
60078;SDS011;45951;45.824;8.824;2024-01-30T08:14:39;15.23;;;10.13;;
60078;SDS011;45951;45.824;8.824;2024-01-30T08:16:21;17.02;;;9.57;;
60078;SDS011;45951;45.824;8.824;2024-01-30T08:18:01;18.38;;;9.32;;
60078;SDS011;45951;45.824;8.824;2024-01-30T08:19:41;13.65;;;9.02;;
60078;SDS011;45951;45.824;8.824;2024-01-30T08:21:21;18.77;;;9.30;;
60078;SDS011;45951;45.824;8.824;2024-01-30T08:23:02;15.65;;;9.15;;
60078;SDS011;45951;45.824;8.824;2024-01-30T08:24:42;16.17;;;9.48;;
60078;SDS011;45951;45.824;8.824;2024-01-30T08:26:22;16.48;;;9.80;;
60078;SDS011;45951;45.824;8.824;2024-01-30T08:28:03;14.75;;;9.55;;
60078;SDS011;45951;45.824;8.824;2024-01-30T08:29:44;16.70;;;9.98;;
60078;SDS011;45951;45.824;8.824;2024-01-30T08:31:24;20.23;;;10.23;;
60078;SDS011;45951;45.824;8.824;2024-01-30T08:33:04;16.52;;;9.30;;
60078;SDS011;45951;45.824;8.824;2024-01-30T08:34:44;13.67;;;8.60;;
60078;SDS011;45951;45.824;8.824;2024-01-30T08:36:25;12.95;;;9.35;;
60078;SDS011;45951;45.824;8.824;2024-01-30T08:38:05;13.93;;;9.23;;
60078;SDS011;45951;45.824;8.824;2024-01-30T08:39:45;14.98;;;8.82;;
60078;SDS011;45951;45.824;8.824;2024-01-30T08:41:25;16.08;;;9.20;;
60078;SDS011;45951;45.824;8.824;2024-01-30T08:43:05;14.63;;;10.43;;
60078;SDS011;45951;45.824;8.824;2024-01-30T08:44:46;18.93;;;11.00;;
60078;SDS011;45951;45.824;8.824;2024-01-30T08:46:26;14.55;;;10.40;;
60078;SDS011;45951;45.824;8.824;2024-01-30T08:48:06;18.43;;;11.73;;
60078;SDS011;45951;45.824;8.824;2024-01-30T08:49:47;15.52;;;11.18;;
60078;SDS011;45951;45.824;8.824;2024-01-30T08:51:28;17.17;;;10.50;;
60078;SDS011;45951;45.824;8.824;2024-01-30T08:53:08;16.33;;;10.73;;
60078;SDS011;45951;45.824;8.824;2024-01-30T08:54:48;16.37;;;9.63;;
60078;SDS011;45951;45.824;8.824;2024-01-30T08:56:28;13.20;;;9.17;;
60078;SDS011;45951;45.824;8.824;2024-01-30T08:58:08;16.67;;;10.10;;
60078;SDS011;45951;45.824;8.824;2024-01-30T08:59:48;16.20;;;10.13;;
60078;SDS011;45951;45.824;8.824;2024-01-30T09:01:29;12.63;;;9.35;;
60078;SDS011;45951;45.824;8.824;2024-01-30T09:03:09;14.00;;;8.10;;
60078;SDS011;45951;45.824;8.824;2024-01-30T09:04:50;13.13;;;8.48;;
60078;SDS011;45951;45.824;8.824;2024-01-30T09:06:30;14.88;;;9.77;;
60078;SDS011;45951;45.824;8.824;2024-01-30T09:08:11;15.80;;;10.07;;
60078;SDS011;45951;45.824;8.824;2024-01-30T09:09:51;14.82;;;9.95;;
60078;SDS011;45951;45.824;8.824;2024-01-30T09:11:31;13.68;;;10.18;;
60078;SDS011;45951;45.824;8.824;2024-01-30T09:13:11;13.47;;;8.37;;
60078;SDS011;45951;45.824;8.824;2024-01-30T09:14:52;15.50;;;8.07;;
60078;SDS011;45951;45.824;8.824;2024-01-30T09:16:32;11.18;;;7.80;;
60078;SDS011;45951;45.824;8.824;2024-01-30T09:18:12;11.52;;;7.55;;
60078;SDS011;45951;45.824;8.824;2024-01-30T09:19:52;11.02;;;6.97;;
60078;SDS011;45951;45.824;8.824;2024-01-30T09:21:32;9.77;;;6.32;;
60078;SDS011;45951;45.824;8.824;2024-01-30T09:23:13;9.23;;;6.00;;
60078;SDS011;45951;45.824;8.824;2024-01-30T09:24:53;10.82;;;6.88;;
60078;SDS011;45951;45.824;8.824;2024-01-30T09:26:33;11.87;;;7.00;;
60078;SDS011;45951;45.824;8.824;2024-01-30T09:28:13;12.38;;;7.57;;
60078;SDS011;45951;45.824;8.824;2024-01-30T09:29:54;11.80;;;6.68;;
60078;SDS011;45951;45.824;8.824;2024-01-30T09:31:34;11.35;;;6.82;;
60078;SDS011;45951;45.824;8.824;2024-01-30T09:33:14;9.87;;;6.50;;
60078;SDS011;45951;45.824;8.824;2024-01-30T09:34:54;9.60;;;6.57;;
60078;SDS011;45951;45.824;8.824;2024-01-30T09:36:34;10.30;;;6.30;;
60078;SDS011;45951;45.824;8.824;2024-01-30T09:38:15;9.83;;;6.93;;
60078;SDS011;45951;45.824;8.824;2024-01-30T09:39:55;13.38;;;7.07;;
60078;SDS011;45951;45.824;8.824;2024-01-30T09:41:45;10.35;;;6.93;;
60078;SDS011;45951;45.824;8.824;2024-01-30T09:43:28;9.93;;;6.40;;
60078;SDS011;45951;45.824;8.824;2024-01-30T09:45:12;9.02;;;5.85;;
60078;SDS011;45951;45.824;8.824;2024-01-30T09:46:53;9.82;;;6.25;;
60078;SDS011;45951;45.824;8.824;2024-01-30T09:48:33;9.65;;;6.53;;
60078;SDS011;45951;45.824;8.824;2024-01-30T09:50:14;10.23;;;6.45;;
60078;SDS011;45951;45.824;8.824;2024-01-30T09:51:55;10.30;;;6.97;;
60078;SDS011;45951;45.824;8.824;2024-01-30T09:53:36;10.52;;;6.75;;
60078;SDS011;45951;45.824;8.824;2024-01-30T09:55:16;8.65;;;5.60;;
60078;SDS011;45951;45.824;8.824;2024-01-30T09:56:57;9.65;;;6.40;;
60078;SDS011;45951;45.824;8.824;2024-01-30T09:58:37;11.10;;;6.75;;